PWSweather.com
Personal Weather Stations
Station Observations
KMAGLOU
Annisquam, Gloucester, MA 01930

AnnisquamGloucester, MA 01930

Lat: 42.651915, Lon: -70.679284

Elevation: 10

Station Type: Davis Vantage Pro2

https://annisquam-yacht-club-weather.keneli.org/

Latest ConditionsUpdated 2:45:00 AM EST Thursday, Dec 12, 2019
Currently Today's Max Today's Min Today's Average
Temperature 29.0°F-1.7°C 29.6°F-1.3°C 28.6°F-1.9°C 29.2°F-1.6°C
Dew Point 21.1°F-6.1°C 25.1°F-3.8°C 20.7°F-6.3°C 22.2°F-5.4°C
Winds 19.0 mph NW30.6 kmh NW 22.0 mph -35.4 kmh - - 12.7 mph 20.4 kmh
Wind Gusts 29.0 mph46.7 kmh 30.0 mph48.3 kmh - -
Humidity 72% 83% 70% 75%
Pressure 30.46 in1031.5 mb 30.46 in1031.5 mb 30.34 in1027.4 mb -
Hour Temp Dew Point Humidity Winds Wind Gusts Pressure Precip Precip Rate Daily Precip Total
02:45 AM 29.0°F-1.7°C 21.1°F-6.1°C 72% 19.0 mph NW30.6 kmh NW 29.0 mph46.7 kmh 30.46 in1031.5 mb 0.00 in0.0 mm 0.00 in0.0 mm 0.00 in0.0 mm
02:40 AM 29.1°F-1.6°C 20.9°F-6.2°C 71% 20.0 mph WNW32.2 kmh WNW 29.0 mph46.7 kmh 30.45 in1031.2 mb 0.00 in0.0 mm 0.00 in0.0 mm 0.00 in0.0 mm
02:35 AM 29.2°F-1.6°C 21.0°F-6.1°C 71% 19.0 mph NW30.6 kmh NW 26.0 mph41.8 kmh 30.45 in1031.2 mb 0.00 in0.0 mm 0.00 in0.0 mm 0.00 in0.0 mm
02:30 AM 29.2°F-1.6°C 21.3°F-5.9°C 72% 19.0 mph NW30.6 kmh NW 25.0 mph40.2 kmh 30.45 in1031.2 mb 0.00 in0.0 mm 0.00 in0.0 mm 0.00 in0.0 mm
02:25 AM 29.3°F-1.5°C 21.7°F-5.7°C 73% 19.0 mph NW30.6 kmh NW 26.0 mph41.8 kmh 30.45 in1031.2 mb 0.00 in0.0 mm 0.00 in0.0 mm 0.00 in0.0 mm
02:20 AM 29.4°F-1.4°C 20.8°F-6.2°C 70% 19.0 mph NW30.6 kmh NW 26.0 mph41.8 kmh 30.45 in1031.2 mb 0.00 in0.0 mm 0.00 in0.0 mm 0.00 in0.0 mm
02:15 AM 29.5°F-1.4°C 21.6°F-5.8°C 72% 22.0 mph NW35.4 kmh NW 28.0 mph45.1 kmh 30.45 in1031.2 mb 0.00 in0.0 mm 0.00 in0.0 mm 0.00 in0.0 mm
02:10 AM 29.5°F-1.4°C 21.3°F-5.9°C 71% 22.0 mph NW35.4 kmh NW 30.0 mph48.3 kmh 30.45 in1031.2 mb 0.00 in0.0 mm 0.00 in0.0 mm 0.00 in0.0 mm
02:05 AM 29.5°F-1.4°C 21.9°F-5.6°C 73% 19.0 mph WNW30.6 kmh WNW 26.0 mph41.8 kmh 30.45 in1031.2 mb 0.00 in0.0 mm 0.00 in0.0 mm 0.00 in0.0 mm
02:00 AM 29.2°F-1.6°C 21.6°F-5.8°C 73% 16.0 mph WNW25.7 kmh WNW 24.0 mph38.6 kmh 30.44 in1030.8 mb 0.00 in0.0 mm 0.00 in0.0 mm 0.00 in0.0 mm
01:55 AM 29.1°F-1.6°C 21.5°F-5.8°C 73% 16.0 mph WNW25.7 kmh WNW 27.0 mph43.5 kmh 30.43 in1030.5 mb 0.00 in0.0 mm 0.00 in0.0 mm 0.00 in0.0 mm
01:50 AM 29.0°F-1.7°C 21.1°F-6.1°C 72% 15.0 mph WNW24.1 kmh WNW 22.0 mph35.4 kmh 30.42 in1030.1 mb 0.00 in0.0 mm 0.00 in0.0 mm 0.00 in0.0 mm
01:45 AM 28.8°F-1.8°C 20.9°F-6.2°C 72% 15.0 mph WNW24.1 kmh WNW 24.0 mph38.6 kmh 30.42 in1030.1 mb 0.00 in0.0 mm 0.00 in0.0 mm 0.00 in0.0 mm
01:40 AM 28.8°F-1.8°C 21.3°F-5.9°C 73% 14.0 mph WNW22.5 kmh WNW 25.0 mph40.2 kmh 30.41 in1029.8 mb 0.00 in0.0 mm 0.00 in0.0 mm 0.00 in0.0 mm
01:35 AM 28.6°F-1.9°C 20.7°F-6.3°C 72% 13.0 mph WNW20.9 kmh WNW 21.0 mph33.8 kmh 30.41 in1029.8 mb 0.00 in0.0 mm 0.00 in0.0 mm 0.00 in0.0 mm
01:30 AM 28.7°F-1.8°C 21.2°F-6.0°C 73% 12.0 mph WNW19.3 kmh WNW 21.0 mph33.8 kmh 30.41 in1029.8 mb 0.00 in0.0 mm 0.00 in0.0 mm 0.00 in0.0 mm
01:25 AM 28.9°F-1.7°C 21.7°F-5.7°C 74% 10.0 mph WNW16.1 kmh WNW 19.0 mph30.6 kmh 30.40 in1029.5 mb 0.00 in0.0 mm 0.00 in0.0 mm 0.00 in0.0 mm
01:20 AM 28.9°F-1.7°C 21.7°F-5.7°C 74% 12.0 mph WNW19.3 kmh WNW 21.0 mph33.8 kmh 30.40 in1029.5 mb 0.00 in0.0 mm 0.00 in0.0 mm 0.00 in0.0 mm
01:15 AM 29.0°F-1.7°C 21.8°F-5.7°C 74% 12.0 mph WNW19.3 kmh WNW 19.0 mph30.6 kmh 30.39 in1029.1 mb 0.00 in0.0 mm 0.00 in0.0 mm 0.00 in0.0 mm
01:10 AM 28.9°F-1.7°C 22.6°F-5.2°C 77% 10.0 mph WNW16.1 kmh WNW 17.0 mph27.4 kmh 30.39 in1029.1 mb 0.00 in0.0 mm 0.00 in0.0 mm 0.00 in0.0 mm
01:05 AM 29.0°F-1.7°C 22.4°F-5.3°C 76% 9.0 mph W14.5 kmh W 17.0 mph27.4 kmh 30.38 in1028.8 mb 0.00 in0.0 mm 0.00 in0.0 mm 0.00 in0.0 mm
01:00 AM 29.0°F-1.7°C 21.8°F-5.7°C 74% 9.0 mph W14.5 kmh W 15.0 mph24.1 kmh 30.38 in1028.8 mb 0.00 in0.0 mm 0.00 in0.0 mm 0.00 in0.0 mm
12:55 AM 29.2°F-1.6°C 22.6°F-5.2°C 76% 9.0 mph W14.5 kmh W 18.0 mph29.0 kmh 30.37 in1028.4 mb 0.00 in0.0 mm 0.00 in0.0 mm 0.00 in0.0 mm
12:50 AM 29.2°F-1.6°C 22.9°F-5.1°C 77% 7.0 mph W11.3 kmh W 14.0 mph22.5 kmh 30.37 in1028.4 mb 0.00 in0.0 mm 0.00 in0.0 mm 0.00 in0.0 mm
12:45 AM 29.3°F-1.5°C 23.3°F-4.8°C 78% 8.0 mph W12.9 kmh W 15.0 mph24.1 kmh 30.37 in1028.4 mb 0.00 in0.0 mm 0.00 in0.0 mm 0.00 in0.0 mm
12:40 AM 29.2°F-1.6°C 23.2°F-4.9°C 78% 8.0 mph W12.9 kmh W 15.0 mph24.1 kmh 30.36 in1028.1 mb 0.00 in0.0 mm 0.00 in0.0 mm 0.00 in0.0 mm
12:35 AM 29.3°F-1.5°C 23.3°F-4.8°C 78% 7.0 mph W11.3 kmh W 14.0 mph22.5 kmh 30.36 in1028.1 mb 0.00 in0.0 mm 0.00 in0.0 mm 0.00 in0.0 mm
12:30 AM 29.4°F-1.4°C 23.4°F-4.8°C 78% 7.0 mph W11.3 kmh W 14.0 mph22.5 kmh 30.36 in1028.1 mb 0.00 in0.0 mm 0.00 in0.0 mm 0.00 in0.0 mm
12:25 AM 29.4°F-1.4°C 24.0°F-4.4°C 80% 7.0 mph W11.3 kmh W 12.0 mph19.3 kmh 30.36 in1028.1 mb 0.00 in0.0 mm 0.00 in0.0 mm 0.00 in0.0 mm
12:20 AM 29.5°F-1.4°C 23.5°F-4.7°C 78% 9.0 mph W14.5 kmh W 14.0 mph22.5 kmh 30.35 in1027.8 mb 0.00 in0.0 mm 0.00 in0.0 mm 0.00 in0.0 mm
12:15 AM 29.5°F-1.4°C 23.8°F-4.6°C 79% 8.0 mph W12.9 kmh W 18.0 mph29.0 kmh 30.35 in1027.8 mb 0.00 in0.0 mm 0.00 in0.0 mm 0.00 in0.0 mm
12:10 AM 29.6°F-1.3°C 24.2°F-4.3°C 80% 7.0 mph W11.3 kmh W 14.0 mph22.5 kmh 30.35 in1027.8 mb 0.00 in0.0 mm 0.00 in0.0 mm 0.00 in0.0 mm
12:05 AM 29.6°F-1.3°C 24.8°F-4.0°C 82% 7.0 mph W11.3 kmh W 13.0 mph20.9 kmh 30.34 in1027.4 mb 0.00 in0.0 mm 0.00 in0.0 mm 0.00 in0.0 mm
12:00 AM 29.6°F-1.3°C 25.1°F-3.8°C 83% 8.0 mph W12.9 kmh W 16.0 mph25.7 kmh 30.34 in1027.4 mb 0.00 in0.0 mm 0.00 in0.0 mm 0.10 in2.5 mm